createdAt,value
2022-09-24T00:01:38.640Z,15.50
2022-09-24T00:04:09.746Z,15.40
2022-09-24T00:06:40.927Z,15.34
2022-09-24T00:09:10.484Z,15.36
2022-09-24T00:11:38.949Z,15.26
2022-09-24T00:14:07.702Z,15.26
2022-09-24T00:16:35.372Z,15.13
2022-09-24T00:19:05.100Z,15.16
2022-09-24T00:21:34.745Z,15.12
2022-09-24T00:24:03.978Z,15.15
2022-09-24T00:26:50.221Z,15.06
2022-09-24T00:29:19.831Z,14.99
2022-09-24T00:31:47.430Z,15.02
2022-09-24T00:34:15.324Z,15.00
2022-09-24T00:36:44.841Z,15.03
2022-09-24T00:39:12.546Z,15.02
2022-09-24T00:41:42.243Z,14.96
2022-09-24T00:44:47.875Z,14.92
2022-09-24T00:47:18.941Z,14.97
2022-09-24T00:49:48.982Z,14.87
2022-09-24T00:52:17.302Z,14.93
2022-09-24T00:54:45.638Z,14.94
2022-09-24T00:57:15.228Z,14.87
2022-09-24T00:59:43.874Z,14.95
2022-09-24T01:02:11.322Z,14.83
2022-09-24T01:04:39.051Z,14.90
2022-09-24T01:07:06.460Z,14.93
2022-09-24T01:09:34.764Z,14.82
2022-09-24T01:12:13.013Z,14.89
2022-09-24T01:14:52.662Z,14.94
2022-09-24T01:17:29.891Z,14.78
2022-09-24T01:20:20.033Z,14.84
2022-09-24T01:23:05.901Z,14.91
2022-09-24T01:25:43.289Z,14.86
2022-09-24T01:28:26.737Z,14.86
2022-09-24T01:31:02.776Z,14.85
2022-09-24T01:33:34.885Z,14.84
2022-09-24T01:36:08.265Z,15.22
2022-09-24T01:38:41.433Z,15.14
2022-09-24T01:41:25.662Z,14.93
2022-09-24T01:43:53.875Z,14.99
2022-09-24T01:46:25.085Z,14.97
2022-09-24T01:48:52.739Z,14.96
2022-09-24T01:51:24.419Z,14.83
2022-09-24T01:53:56.311Z,14.91
2022-09-24T01:56:27.811Z,14.97
2022-09-24T01:59:01.526Z,14.93
2022-09-24T02:01:33.847Z,14.98
2022-09-24T02:04:08.182Z,15.03
2022-09-24T02:06:39.709Z,15.02
2022-09-24T02:09:07.780Z,15.03
2022-09-24T02:11:37.852Z,14.99
2022-09-24T02:14:09.624Z,15.00
2022-09-24T02:16:42.531Z,15.08
2022-09-24T02:19:14.856Z,15.04
2022-09-24T02:21:45.421Z,15.11
2022-09-24T02:24:17.856Z,15.10
2022-09-24T02:26:46.253Z,15.14
2022-09-24T02:29:14.176Z,14.96
2022-09-24T02:31:47.462Z,14.91
2022-09-24T02:34:22.401Z,15.03
2022-09-24T02:36:51.066Z,15.14
2022-09-24T02:39:19.079Z,15.00
2022-09-24T02:41:48.431Z,15.09
2022-09-24T02:44:16.502Z,15.32
2022-09-24T02:46:45.752Z,15.10
2022-09-24T02:49:14.133Z,15.18
2022-09-24T02:51:42.016Z,15.27
2022-09-24T02:54:10.510Z,15.10
2022-09-24T02:56:38.352Z,15.06
2022-09-24T02:59:06.214Z,15.03
2022-09-24T03:01:33.761Z,15.00
2022-09-24T03:04:03.276Z,15.20
2022-09-24T03:06:30.843Z,15.15
2022-09-24T03:08:58.864Z,15.24
2022-09-24T03:11:26.436Z,15.21
2022-09-24T03:13:53.832Z,15.09
2022-09-24T03:16:21.400Z,14.98
2022-09-24T03:18:49.235Z,15.02
2022-09-24T03:21:19.985Z,14.99
2022-09-24T03:23:48.174Z,14.92
2022-09-24T03:26:15.762Z,15.13
2022-09-24T03:28:43.159Z,14.96
2022-09-24T03:31:09.819Z,15.05
2022-09-24T03:33:38.680Z,15.02
2022-09-24T03:36:08.616Z,14.99
2022-09-24T03:38:38.703Z,14.99
2022-09-24T03:41:07.161Z,14.88
2022-09-24T03:43:35.008Z,14.84
2022-09-24T03:46:02.820Z,14.95
2022-09-24T03:48:30.938Z,14.89
2022-09-24T03:50:58.357Z,15.03
2022-09-24T03:53:25.732Z,14.85
2022-09-24T03:55:57.715Z,14.89
2022-09-24T03:58:26.076Z,14.67
2022-09-24T04:00:54.449Z,14.78
2022-09-24T04:03:22.702Z,14.86
2022-09-24T04:05:51.421Z,14.89
2022-09-24T04:08:19.250Z,15.02
2022-09-24T04:10:47.227Z,14.93
2022-09-24T04:13:16.164Z,14.95
2022-09-24T04:15:43.767Z,14.86
2022-09-24T04:18:11.497Z,14.92
2022-09-24T04:20:38.911Z,14.91
2022-09-24T04:23:06.387Z,14.84
2022-09-24T04:25:34.173Z,14.85
2022-09-24T04:28:03.753Z,14.75
2022-09-24T04:30:33.756Z,14.93
2022-09-24T04:33:02.751Z,14.71
2022-09-24T04:35:32.073Z,15.04
2022-09-24T04:38:00.316Z,15.18
2022-09-24T04:40:28.361Z,14.95
2022-09-24T04:42:55.859Z,14.92
2022-09-24T04:45:24.920Z,14.83
2022-09-24T04:47:57.821Z,15.04
2022-09-24T04:50:26.677Z,15.11
2022-09-24T04:52:54.661Z,14.83
2022-09-24T04:55:22.298Z,14.73
2022-09-24T04:57:51.074Z,14.59
2022-09-24T05:00:21.567Z,14.71
2022-09-24T05:02:56.419Z,14.82
2022-09-24T05:05:25.229Z,14.92
2022-09-24T05:07:52.770Z,14.91
2022-09-24T05:10:20.270Z,14.88
2022-09-24T05:12:47.668Z,14.76
2022-09-24T05:15:15.226Z,14.84
2022-09-24T05:17:42.740Z,14.80
2022-09-24T05:20:11.363Z,14.84
2022-09-24T05:22:43.007Z,15.03
2022-09-24T05:25:10.941Z,14.89
2022-09-24T05:27:37.580Z,15.08
2022-09-24T05:30:06.180Z,15.07
2022-09-24T05:32:36.731Z,14.47
2022-09-24T05:35:04.396Z,14.84
2022-09-24T05:37:31.791Z,14.95
2022-09-24T05:40:21.118Z,14.90
2022-09-24T05:42:48.534Z,15.02
2022-09-24T05:45:18.431Z,15.06
2022-09-24T05:47:46.115Z,15.02
2022-09-24T05:50:14.367Z,15.03
2022-09-24T05:52:42.779Z,14.77
2022-09-24T05:55:12.031Z,15.26
2022-09-24T05:57:39.660Z,15.14
2022-09-24T06:00:08.392Z,15.04
2022-09-24T06:02:35.850Z,15.08
2022-09-24T06:05:03.348Z,15.19
2022-09-24T06:07:31.070Z,15.35
2022-09-24T06:09:59.189Z,15.32
2022-09-24T06:12:27.985Z,15.42
2022-09-24T06:14:55.397Z,15.36
2022-09-24T06:17:23.526Z,15.24
2022-09-24T06:19:50.953Z,15.24
2022-09-24T06:22:19.373Z,15.29
2022-09-24T06:24:46.876Z,15.24
2022-09-24T06:27:14.288Z,15.33
2022-09-24T06:29:42.987Z,15.37
2022-09-24T06:32:10.425Z,15.46
2022-09-24T06:34:37.831Z,15.41
2022-09-24T06:37:05.273Z,15.53
2022-09-24T06:39:32.661Z,15.63
2022-09-24T06:42:00.116Z,15.70
2022-09-24T06:44:27.520Z,15.79
2022-09-24T06:46:57.208Z,15.72
2022-09-24T06:49:24.615Z,15.70
2022-09-24T06:51:54.649Z,15.90
2022-09-24T06:54:22.378Z,15.91
2022-09-24T06:56:50.284Z,15.79
2022-09-24T06:59:17.678Z,15.95
2022-09-24T07:01:45.155Z,16.02
2022-09-24T07:04:13.913Z,15.97
2022-09-24T07:06:58.616Z,15.92
2022-09-24T07:09:26.024Z,16.07
2022-09-24T07:11:54.722Z,15.83
2022-09-24T07:14:23.892Z,15.81
2022-09-24T07:16:52.140Z,15.86
2022-09-24T07:19:20.859Z,15.88
2022-09-24T07:21:48.266Z,16.01
2022-09-24T07:24:15.679Z,16.01
2022-09-24T07:26:43.072Z,16.10
2022-09-24T07:29:10.469Z,16.15
2022-09-24T07:31:37.961Z,16.08
2022-09-24T07:34:07.920Z,16.00
2022-09-24T07:36:36.747Z,16.25
2022-09-24T07:39:05.072Z,16.18
2022-09-24T07:41:33.044Z,16.28
2022-09-24T07:44:00.921Z,16.29
2022-09-24T07:46:28.498Z,16.39
2022-09-24T07:48:56.749Z,16.44
2022-09-24T07:51:25.965Z,16.42
2022-09-24T07:53:55.509Z,16.38
2022-09-24T07:56:23.973Z,16.24
2022-09-24T07:58:52.549Z,16.26
2022-09-24T08:01:20.604Z,16.38
2022-09-24T08:03:48.246Z,16.48
2022-09-24T08:06:15.721Z,16.34
2022-09-24T08:08:43.793Z,16.44
2022-09-24T08:11:13.860Z,16.59
2022-09-24T08:13:41.364Z,16.64
2022-09-24T08:16:08.875Z,16.43
2022-09-24T08:18:36.339Z,16.15
2022-09-24T08:21:05.698Z,16.58
2022-09-24T08:23:33.229Z,16.56
2022-09-24T08:26:01.043Z,16.64
2022-09-24T08:28:31.205Z,17.02
2022-09-24T08:31:00.487Z,17.00
2022-09-24T08:33:37.210Z,17.05
2022-09-24T08:36:06.695Z,16.85
2022-09-24T08:38:34.077Z,16.86
2022-09-24T08:41:15.002Z,17.09
2022-09-24T08:43:50.710Z,16.79
2022-09-24T08:46:42.318Z,17.05
2022-09-24T08:49:17.120Z,17.09
2022-09-24T08:51:51.209Z,17.23
2022-09-24T08:54:19.716Z,17.01
2022-09-24T08:56:47.671Z,17.20
2022-09-24T08:59:27.691Z,17.47
2022-09-24T09:02:13.345Z,17.50
2022-09-24T09:04:52.248Z,17.36
2022-09-24T09:07:22.499Z,17.68
2022-09-24T09:09:56.216Z,17.78
2022-09-24T09:12:28.535Z,17.76
2022-09-24T09:15:02.805Z,17.85
2022-09-24T09:17:42.413Z,17.91
2022-09-24T09:20:16.907Z,17.58
2022-09-24T09:22:48.021Z,17.52
2022-09-24T09:25:20.702Z,17.73
2022-09-24T09:27:51.813Z,17.10
2022-09-24T09:30:21.945Z,17.74
2022-09-24T09:33:10.670Z,17.56
2022-09-24T09:35:47.328Z,17.92
2022-09-24T09:38:20.970Z,18.26
2022-09-24T09:40:58.202Z,17.17
2022-09-24T09:43:26.815Z,17.63
2022-09-24T09:46:07.569Z,17.99
2022-09-24T09:48:44.458Z,18.12
2022-09-24T09:51:22.305Z,18.41
2022-09-24T09:53:56.440Z,18.40
2022-09-24T09:56:27.251Z,18.30
2022-09-24T09:59:03.891Z,17.02
2022-09-24T10:01:35.361Z,17.35
2022-09-24T10:04:04.844Z,17.25
2022-09-24T10:06:34.397Z,17.76
2022-09-24T10:09:13.076Z,17.57
2022-09-24T10:11:40.618Z,17.65
2022-09-24T10:14:12.357Z,18.09
2022-09-24T10:16:43.516Z,17.62
2022-09-24T10:19:18.173Z,18.08
2022-09-24T10:21:45.669Z,18.24
2022-09-24T10:24:17.371Z,18.17
2022-09-24T10:26:46.590Z,18.16
2022-09-24T10:29:35.665Z,18.20
2022-09-24T10:32:04.901Z,18.50
2022-09-24T10:34:32.557Z,18.39
2022-09-24T10:37:05.044Z,18.39
2022-09-24T10:39:34.839Z,18.14
2022-09-24T10:42:02.952Z,18.30
2022-09-24T10:44:35.779Z,18.43
2022-09-24T10:47:20.457Z,18.30
2022-09-24T10:50:01.833Z,18.51
2022-09-24T10:52:43.525Z,18.47
2022-09-24T10:55:21.664Z,18.38
2022-09-24T10:57:59.777Z,18.49
2022-09-24T11:00:38.681Z,18.68
2022-09-24T11:03:27.240Z,18.60
2022-09-24T11:06:01.502Z,18.66
2022-09-24T11:08:47.897Z,18.80
2022-09-24T11:11:28.538Z,18.62
2022-09-24T11:14:05.178Z,18.84
2022-09-24T11:16:56.263Z,18.87
2022-09-24T11:19:51.559Z,18.86
2022-09-24T11:22:24.987Z,18.48
2022-09-24T11:25:09.613Z,18.67
2022-09-24T11:27:52.967Z,18.91
2022-09-24T11:30:24.832Z,18.76
2022-09-24T11:33:07.829Z,18.86
2022-09-24T11:35:56.589Z,19.02
2022-09-24T11:38:31.692Z,19.08
2022-09-24T11:41:12.648Z,19.16
2022-09-24T11:43:51.572Z,19.20
2022-09-24T11:46:29.044Z,19.40
2022-09-24T11:49:20.635Z,19.39
2022-09-24T11:51:56.745Z,19.26
2022-09-24T11:54:31.791Z,19.20
2022-09-24T11:57:04.326Z,19.32
2022-09-24T11:59:39.798Z,19.51
2022-09-24T12:02:19.250Z,19.41
2022-09-24T12:04:55.402Z,19.34
2022-09-24T12:07:31.494Z,19.36
2022-09-24T12:10:03.317Z,19.25
2022-09-24T12:12:34.548Z,19.12
2022-09-24T12:15:06.984Z,19.18
2022-09-24T12:17:39.638Z,19.28
2022-09-24T12:20:17.959Z,19.38
2022-09-24T12:22:50.040Z,19.29
2022-09-24T12:25:17.710Z,19.08
2022-09-24T12:27:46.589Z,18.62
2022-09-24T12:30:49.205Z,19.13
2022-09-24T12:33:22.681Z,19.31
2022-09-24T12:36:01.876Z,19.33
2022-09-24T12:38:35.454Z,19.16
2022-09-24T12:41:19.791Z,18.37
2022-09-24T12:43:53.748Z,18.79
2022-09-24T12:46:23.796Z,19.25
2022-09-24T12:48:53.474Z,19.01
2022-09-24T12:51:23.768Z,18.69
2022-09-24T12:54:05.855Z,18.80
2022-09-24T12:56:34.883Z,19.23
2022-09-24T12:59:05.515Z,19.26
2022-09-24T13:01:35.349Z,19.75
2022-09-24T13:04:24.525Z,19.67
2022-09-24T13:06:52.371Z,19.86
2022-09-24T13:09:36.033Z,19.66
2022-09-24T13:12:20.915Z,19.59
2022-09-24T13:14:57.757Z,19.65
2022-09-24T13:17:25.811Z,19.41
2022-09-24T13:19:59.452Z,19.57
2022-09-24T13:22:29.758Z,19.57
2022-09-24T13:25:20.773Z,19.80
2022-09-24T13:27:58.980Z,19.89
2022-09-24T13:30:36.260Z,19.57
2022-09-24T13:33:11.668Z,19.64
2022-09-24T13:35:46.517Z,19.47
2022-09-24T13:38:21.956Z,19.61
2022-09-24T13:40:56.997Z,19.61
2022-09-24T13:43:38.176Z,19.66
2022-09-24T13:46:12.927Z,19.66
2022-09-24T13:48:46.199Z,19.72
2022-09-24T13:51:14.967Z,19.73
2022-09-24T13:53:49.587Z,19.34
2022-09-24T13:56:20.756Z,19.43
2022-09-24T13:58:51.288Z,19.56
2022-09-24T14:01:21.308Z,19.22
2022-09-24T14:03:56.950Z,19.32
2022-09-24T14:06:34.826Z,19.26
2022-09-24T14:09:02.470Z,19.63
2022-09-24T14:11:31.243Z,19.75
2022-09-24T14:13:59.197Z,19.50
2022-09-24T14:16:27.335Z,19.59
2022-09-24T14:19:02.985Z,19.63
2022-09-24T14:21:35.887Z,19.54
2022-09-24T14:24:07.869Z,19.31
2022-09-24T14:26:41.662Z,18.48
2022-09-24T14:29:14.894Z,19.35
2022-09-24T14:31:48.158Z,19.30
2022-09-24T14:34:26.733Z,18.99
2022-09-24T14:36:55.314Z,19.23
2022-09-24T14:39:25.613Z,19.44
2022-09-24T14:41:55.895Z,19.37
2022-09-24T14:44:25.395Z,19.25
2022-09-24T14:46:56.928Z,18.65
2022-09-24T14:49:26.719Z,18.88
2022-09-24T14:51:56.692Z,18.96
2022-09-24T14:54:31.836Z,18.34
2022-09-24T14:57:11.890Z,18.73
2022-09-24T14:59:41.595Z,18.59
2022-09-24T15:02:18.836Z,18.52
2022-09-24T15:04:48.576Z,18.64
2022-09-24T15:07:22.388Z,19.14
2022-09-24T15:09:51.476Z,19.07
2022-09-24T15:12:24.844Z,18.90
2022-09-24T15:14:56.980Z,18.97
2022-09-24T15:17:29.808Z,18.69
2022-09-24T15:19:57.982Z,18.52
2022-09-24T15:22:26.828Z,18.83
2022-09-24T15:25:00.303Z,18.77
2022-09-24T15:27:32.074Z,18.58
2022-09-24T15:30:01.148Z,18.25
2022-09-24T15:32:30.949Z,17.95
2022-09-24T15:34:58.453Z,18.47
2022-09-24T15:37:28.227Z,18.76
2022-09-24T15:39:59.298Z,18.80
2022-09-24T15:42:27.861Z,18.59
2022-09-24T15:44:58.499Z,18.73
2022-09-24T15:47:26.517Z,17.85
2022-09-24T15:49:54.146Z,17.88
2022-09-24T15:52:26.161Z,18.37
2022-09-24T15:54:56.285Z,18.35
2022-09-24T15:57:24.157Z,18.29
2022-09-24T15:59:51.751Z,17.83
2022-09-24T16:02:24.470Z,17.76
2022-09-24T16:04:54.689Z,17.90
2022-09-24T16:07:22.273Z,17.66
2022-09-24T16:09:49.764Z,17.64
2022-09-24T16:12:18.309Z,17.81
2022-09-24T16:14:45.856Z,18.10
2022-09-24T16:17:14.091Z,18.43
2022-09-24T16:19:45.329Z,17.92
2022-09-24T16:22:20.212Z,17.10
2022-09-24T16:24:47.971Z,17.50
2022-09-24T16:27:15.384Z,17.39
2022-09-24T16:29:42.783Z,17.25
2022-09-24T16:32:10.550Z,17.58
2022-09-24T16:34:37.939Z,17.79
2022-09-24T16:37:06.686Z,18.22
2022-09-24T16:39:34.115Z,17.55
2022-09-24T16:42:01.492Z,17.05
2022-09-24T16:44:29.034Z,17.38
2022-09-24T16:46:56.436Z,17.92
2022-09-24T16:49:24.508Z,18.11
2022-09-24T16:51:51.995Z,17.83
2022-09-24T16:54:22.680Z,17.71
2022-09-24T16:56:50.429Z,17.78
2022-09-24T16:59:18.132Z,17.99
2022-09-24T17:01:46.256Z,18.33
2022-09-24T17:04:13.700Z,17.89
2022-09-24T17:06:41.294Z,17.93
2022-09-24T17:09:26.107Z,17.26
2022-09-24T17:11:54.879Z,17.01
2022-09-24T17:14:22.352Z,16.43
2022-09-24T17:16:49.793Z,16.63
2022-09-24T17:19:17.165Z,16.90
2022-09-24T17:21:46.867Z,16.93
2022-09-24T17:24:17.853Z,17.11
2022-09-24T17:26:48.892Z,16.85
2022-09-24T17:32:58.289Z,17.29
2022-09-24T17:35:26.455Z,17.61
2022-09-24T17:43:09.916Z,16.59
2022-09-24T17:45:39.507Z,16.88
2022-09-24T17:48:08.373Z,17.05
2022-09-24T17:50:36.925Z,17.23
2022-09-24T17:53:04.668Z,16.88
2022-09-24T17:55:32.074Z,17.17
2022-09-24T17:57:59.486Z,17.40
2022-09-24T18:00:28.183Z,17.38
2022-09-24T18:02:56.073Z,17.38
2022-09-24T18:05:24.933Z,17.18
2022-09-24T18:07:52.298Z,17.36
2022-09-24T18:10:20.186Z,16.91
2022-09-24T18:12:47.609Z,17.02
2022-09-24T18:15:15.120Z,17.30
2022-09-24T18:17:42.511Z,17.55
2022-09-24T18:20:10.013Z,17.09
2022-09-24T18:22:39.160Z,17.33
2022-09-24T18:25:07.603Z,16.78
2022-09-24T18:27:36.316Z,16.65
2022-09-24T18:30:04.252Z,16.70
2022-09-24T18:32:31.910Z,17.06
2022-09-24T18:34:59.436Z,17.45
2022-09-24T18:37:26.935Z,16.78
2022-09-24T18:39:55.740Z,17.10
2022-09-24T18:42:23.126Z,17.05
2022-09-24T18:44:51.658Z,17.00
2022-09-24T18:47:20.301Z,16.62
2022-09-24T18:49:47.813Z,16.74
2022-09-24T18:52:15.219Z,16.89
2022-09-24T18:54:42.688Z,17.01
2022-09-24T18:57:11.604Z,16.74
2022-09-24T18:59:44.717Z,16.26
2022-09-24T19:02:13.101Z,16.41
2022-09-24T19:04:40.795Z,15.98
2022-09-24T19:07:09.203Z,15.73
2022-09-24T19:09:36.866Z,16.03
2022-09-24T19:12:07.978Z,15.43
2022-09-24T19:14:37.967Z,16.04
2022-09-24T19:17:07.137Z,16.22
2022-09-24T19:19:34.976Z,15.63
2022-09-24T19:22:02.403Z,16.41
2022-09-24T19:24:29.782Z,15.95
2022-09-24T19:26:57.681Z,15.75
2022-09-24T19:29:25.596Z,15.49
2022-09-24T19:31:54.323Z,16.43
2022-09-24T19:34:22.045Z,16.54
2022-09-24T19:36:49.764Z,16.16
2022-09-24T19:39:18.390Z,15.66
2022-09-24T19:41:45.924Z,15.91
2022-09-24T19:44:13.995Z,15.85
2022-09-24T19:46:41.763Z,16.04
2022-09-24T19:49:10.753Z,15.92
2022-09-24T19:51:38.669Z,15.70
2022-09-24T19:54:08.048Z,16.09
2022-09-24T19:56:36.244Z,16.86
2022-09-24T19:59:04.803Z,16.29
2022-09-24T20:01:33.772Z,14.96
2022-09-24T20:04:05.364Z,15.24
2022-09-24T20:06:36.023Z,15.53
2022-09-24T20:09:04.133Z,15.83
2022-09-24T20:11:32.791Z,16.08
2022-09-24T20:14:01.594Z,16.04
2022-09-24T20:16:31.023Z,16.23
2022-09-24T20:18:58.451Z,15.83
2022-09-24T20:21:28.313Z,15.92
2022-09-24T20:23:59.141Z,15.94
2022-09-24T20:26:45.103Z,15.99
2022-09-24T20:29:14.255Z,16.23
2022-09-24T20:31:42.565Z,15.74
2022-09-24T20:34:10.115Z,16.25
2022-09-24T20:36:37.865Z,16.06
2022-09-24T20:39:06.756Z,16.13
2022-09-24T20:41:34.251Z,15.73
2022-09-24T20:44:01.999Z,16.12
2022-09-24T20:46:29.949Z,15.70
2022-09-24T20:48:59.776Z,15.53
2022-09-24T20:51:29.377Z,16.10
2022-09-24T20:53:57.890Z,16.00
2022-09-24T20:56:27.954Z,16.05
2022-09-24T20:58:55.511Z,15.63
2022-09-24T21:01:23.446Z,15.96
2022-09-24T21:03:51.210Z,15.89
2022-09-24T21:06:22.593Z,15.66
2022-09-24T21:08:50.802Z,15.75
2022-09-24T21:11:21.273Z,16.14
2022-09-24T21:13:51.508Z,15.79
2022-09-24T21:16:21.337Z,15.69
2022-09-24T21:18:49.980Z,15.63
2022-09-24T21:21:19.203Z,15.85
2022-09-24T21:23:48.190Z,15.96
2022-09-24T21:26:18.449Z,16.30
2022-09-24T21:28:47.512Z,15.77
2022-09-24T21:31:18.317Z,16.17
2022-09-24T21:33:47.716Z,15.70
2022-09-24T21:36:20.316Z,15.84
2022-09-24T21:38:54.346Z,15.62
2022-09-24T21:41:23.092Z,15.21
2022-09-24T21:43:50.697Z,15.61
2022-09-24T21:46:19.593Z,15.94
2022-09-24T21:48:47.164Z,15.75
2022-09-24T21:51:21.241Z,15.08
2022-09-24T21:53:49.585Z,15.31
2022-09-24T21:56:19.305Z,15.58
2022-09-24T21:58:46.886Z,15.66
2022-09-24T22:01:17.819Z,15.57
2022-09-24T22:03:47.273Z,15.36
2022-09-24T22:06:15.800Z,15.32
2022-09-24T22:08:45.443Z,14.79
2022-09-24T22:11:13.750Z,14.99
2022-09-24T22:13:41.481Z,15.13
2022-09-24T22:16:11.482Z,15.36
2022-09-24T22:18:39.794Z,14.97
2022-09-24T22:21:10.765Z,15.32
2022-09-24T22:23:38.876Z,15.18
2022-09-24T22:26:08.185Z,15.16
2022-09-24T22:28:37.905Z,15.32
2022-09-24T22:31:07.508Z,15.06
2022-09-24T22:33:52.676Z,15.50
2022-09-24T22:36:22.137Z,15.62
2022-09-24T22:38:52.663Z,15.49
2022-09-24T22:41:20.296Z,15.54
2022-09-24T22:43:47.723Z,15.53
2022-09-24T22:46:16.391Z,15.78
2022-09-24T22:48:44.055Z,15.91
2022-09-24T22:51:11.497Z,16.12
2022-09-24T22:53:42.257Z,15.96
2022-09-24T22:56:12.044Z,15.92
2022-09-24T22:58:41.214Z,15.78
2022-09-24T23:01:09.383Z,15.36
2022-09-24T23:03:37.651Z,15.42
2022-09-24T23:06:06.027Z,15.42
2022-09-24T23:08:34.302Z,15.08
2022-09-24T23:11:08.025Z,15.77
2022-09-24T23:13:36.212Z,15.29
2022-09-24T23:16:12.242Z,15.28
2022-09-24T23:18:40.716Z,15.09
2022-09-24T23:21:10.715Z,14.76
2022-09-24T23:23:38.427Z,15.02
2022-09-24T23:26:11.074Z,15.36
2022-09-24T23:28:42.264Z,15.42
2022-09-24T23:31:12.978Z,15.20
2022-09-24T23:33:42.370Z,15.82
2022-09-24T23:36:12.041Z,15.09
2022-09-24T23:38:40.335Z,14.98
2022-09-24T23:41:10.610Z,15.13
2022-09-24T23:43:38.766Z,15.32
2022-09-24T23:46:06.652Z,15.14
2022-09-24T23:48:34.164Z,15.39
2022-09-24T23:51:01.650Z,15.52
2022-09-24T23:53:29.021Z,15.48
2022-09-24T23:55:56.708Z,15.65
2022-09-24T23:58:25.979Z,15.59
